Time;durP1;ratioP1;P1;durP2;ratioP2;P2;SDS_P1;SDS_P2;PMS_P1;PMS_P2;Temp;Humidity;BMP_temperature;BMP_pressure;BME280_temperature;BME280_humidity;BME280_pressure;Samples;Min_cycle;Max_cycle;Signal;HPM_P1;HPM_P2
2021/06/22 00:07:24;;;;;;;12.27;5.40;;;;;;;21.07;59.36;98727.94;532621;1087;115878;-60
2021/06/22 00:17:31;;;;;;;8.83;5.50;;;;;;;21.00;59.52;98715.33;517960;1087;115995;-59
2021/06/22 00:27:38;;;;;;;8.27;5.27;;;;;;;20.93;59.67;98698.41;514885;1088;115724;-59
2021/06/22 00:37:45;;;;;;;8.80;5.20;;;;;;;20.86;59.58;98714.34;529139;1087;116564;-60
2021/06/22 00:47:52;;;;;;;9.75;6.03;;;;;;;20.78;59.61;98713.59;531795;1087;116573;-60
2021/06/22 00:58:00;;;;;;;10.93;5.37;;;;;;;20.69;60.23;98720.88;528340;1088;115617;-59
2021/06/22 01:08:05;;;;;;;;;;;;;;;20.56;60.68;98690.36;530649;1088;115918;-59
2021/06/22 01:18:12;;;;;;;9.43;5.87;;;;;;;20.53;60.56;98682.71;514450;1087;102790;-58
2021/06/22 01:28:18;;;;;;;11.33;6.47;;;;;;;20.50;60.35;98677.75;515024;1088;116236;-59
2021/06/22 01:38:25;;;;;;;9.37;6.40;;;;;;;20.42;60.81;98684.02;518036;1087;116252;-59
2021/06/22 01:48:31;;;;;;;13.68;6.90;;;;;;;20.38;60.94;98689.91;521062;1087;116509;-60
2021/06/22 01:58:38;;;;;;;6.93;6.00;;;;;;;20.34;61.18;98673.44;521003;1088;116026;-60
2021/06/22 02:08:45;;;;;;;9.77;7.17;;;;;;;20.25;61.72;98683.38;515700;1089;115827;-60
2021/06/22 02:18:52;;;;;;;10.33;5.70;;;;;;;20.20;61.78;98685.78;526535;1085;116555;-60
2021/06/22 02:28:59;;;;;;;14.27;6.90;;;;;;;20.18;61.91;98686.97;517803;1087;118788;-59
2021/06/22 02:39:07;;;;;;;9.60;6.50;;;;;;;20.20;61.80;98696.44;514074;1087;116390;-59
2021/06/22 02:49:12;;;;;;;;;;;;;;;20.39;62.32;98708.39;518191;1089;116014;-59
2021/06/22 02:59:18;;;;;;;8.17;6.90;;;;;;;21.37;61.47;98720.66;514932;1088;102629;-59
2021/06/22 03:09:25;;;;;;;12.17;6.70;;;;;;;22.84;59.45;98727.28;526023;1089;116473;-61
2021/06/22 03:19:32;;;;;;;15.77;8.40;;;;;;;23.72;57.20;98727.50;520303;1088;115966;-59
2021/06/22 03:29:38;;;;;;;13.33;7.37;;;;;;;25.97;53.96;98736.16;531831;1089;116801;-60
2021/06/22 03:39:47;;;;;;;11.70;6.33;;;;;;;25.08;52.75;98737.78;527510;1087;116244;-60
2021/06/22 03:49:54;;;;;;;9.77;6.33;;;;;;;24.72;53.62;98749.88;532556;1087;116286;-59
2021/06/22 04:00:00;;;;;;;11.55;6.15;;;;;;;29.43;49.01;98736.91;531835;1087;116245;-60
2021/06/22 04:10:09;;;;;;;12.05;5.55;;;;;;;33.87;42.58;98738.34;525139;1089;116134;-59
2021/06/22 04:20:16;;;;;;;9.60;5.87;;;;;;;36.53;36.49;98741.13;531509;1088;116192;-60
2021/06/22 04:30:25;;;;;;;19.80;5.95;;;;;;;38.37;32.91;98740.50;531837;1087;116341;-60
2021/06/22 04:40:32;;;;;;;8.65;5.00;;;;;;;39.97;30.31;98754.52;532291;1087;116241;-60
2021/06/22 04:50:39;;;;;;;9.00;4.78;;;;;;;41.97;27.96;98772.77;531777;1087;116158;-60
2021/06/22 05:00:45;;;;;;;10.25;5.30;;;;;;;45.20;24.59;98762.13;526621;1087;116316;-61
2021/06/22 05:10:52;;;;;;;17.18;5.68;;;;;;;46.63;22.38;98755.48;526014;1087;116986;-60
2021/06/22 05:20:59;;;;;;;13.43;5.25;;;;;;;48.58;20.22;98746.38;531801;1085;116434;-60
2021/06/22 05:31:06;;;;;;;10.15;4.60;;;;;;;49.95;18.54;98741.56;532509;1087;116678;-60
2021/06/22 05:41:13;;;;;;;9.43;5.03;;;;;;;51.81;17.46;98755.20;532474;1088;116281;-61
2021/06/22 05:51:19;;;;;;;5.68;5.20;;;;;;;54.02;15.56;98744.29;531810;1086;116188;-60
2021/06/22 06:01:26;;;;;;;9.95;5.23;;;;;;;54.94;14.72;98756.18;529376;1086;115996;-60
2021/06/22 06:11:33;;;;;;;12.05;6.68;;;;;;;55.22;13.27;98746.57;532503;1087;173513;-60
2021/06/22 06:21:41;;;;;;;9.95;6.50;;;;;;;56.73;13.29;98733.11;532336;1087;115867;-60
2021/06/22 06:31:48;;;;;;;16.28;8.13;;;;;;;58.89;11.99;98772.52;532319;1088;116309;-59
2021/06/22 06:41:55;;;;;;;16.38;10.15;;;;;;;59.86;10.75;98768.66;531732;1088;116936;-59
2021/06/22 06:52:01;;;;;;;18.88;13.20;;;;;;;61.33;10.22;98785.54;532435;1087;116889;-59
2021/06/22 07:02:09;;;;;;;20.23;18.25;;;;;;;63.21;9.57;98780.55;523765;1087;116634;-59
2021/06/22 07:12:16;;;;;;;29.70;27.25;;;;;;;64.18;8.44;98783.43;525461;1087;116760;-59
2021/06/22 07:22:22;;;;;;;28.68;26.98;;;;;;;63.30;8.49;98769.95;532515;1085;116407;-67
2021/06/22 07:32:30;;;;;;;25.55;24.05;;;;;;;62.13;8.96;98744.48;507993;1087;10113012;-65
2021/06/22 07:42:37;;;;;;;20.77;19.57;;;;;;;61.03;7.78;98761.63;531691;1087;117121;-65
2021/06/22 07:52:47;;;;;;;9.58;5.03;;;;;;;51.30;11.64;98766.25;523441;1089;10001204;-64
2021/06/22 08:02:55;;;;;;;9.98;3.80;;;;;;;44.68;16.25;98777.59;518816;1087;117317;-63
2021/06/22 08:13:02;;;;;;;7.90;3.60;;;;;;;41.32;19.58;98800.22;532386;1087;116448;-65
2021/06/22 08:23:09;;;;;;;9.80;3.50;;;;;;;39.73;21.16;98799.61;532475;1087;116155;-63
2021/06/22 08:33:15;;;;;;;6.25;3.25;;;;;;;39.03;22.33;98796.27;530654;1088;115588;-64
2021/06/22 08:43:22;;;;;;;8.30;3.80;;;;;;;38.34;22.53;98803.34;532562;1087;116309;-69
2021/06/22 08:53:29;;;;;;;11.33;4.20;;;;;;;37.74;23.97;98802.97;525716;1087;116156;-68
2021/06/22 09:03:37;;;;;;;13.40;4.33;;;;;;;37.28;24.44;98801.73;531767;1089;116357;-67
2021/06/22 09:13:55;;;;;;;7.60;3.30;;;;;;;36.67;25.06;98794.02;532530;1088;116589;-62
2021/06/22 09:24:01;;;;;;;6.70;3.68;;;;;;;36.34;25.65;98788.33;531814;1087;116509;-62
2021/06/22 09:34:16;;;;;;;11.37;3.37;;;;;;;36.34;25.59;98784.80;532539;1086;116431;-65
2021/06/22 09:44:26;;;;;;;10.23;4.13;;;;;;;35.89;26.13;98783.81;524278;1087;117867;-67
2021/06/22 09:54:34;;;;;;;8.27;3.17;;;;;;;35.68;26.23;98776.92;531848;1087;116711;-67
2021/06/22 10:04:45;;;;;;;12.85;3.80;;;;;;;35.82;26.53;98768.87;532482;1087;116423;-62
2021/06/22 10:14:53;;;;;;;9.18;4.53;;;;;;;35.71;26.89;98758.03;531751;1089;116406;-62
2021/06/22 10:25:01;;;;;;;7.45;4.70;;;;;;;35.55;26.48;98759.27;519860;1088;116179;-61
2021/06/22 10:35:13;;;;;;;9.30;4.10;;;;;;;35.33;26.76;98758.58;532540;1089;116369;-60
2021/06/22 10:45:21;;;;;;;8.25;4.40;;;;;;;35.30;27.14;98747.41;527513;1088;115831;-60
2021/06/22 10:55:57;;;;;;;10.15;4.20;;;;;;;34.78;27.25;98745.77;524455;1087;116803;-63
2021/06/22 11:16:42;;;;;;;8.43;3.93;;;;;;;34.57;28.03;98719.70;514508;1093;64670;-61
2021/06/22 11:27:06;;;;;;;12.30;4.70;;;;;;;34.33;28.17;98721.09;493787;1093;10001744;-62
2021/06/22 11:37:22;;;;;;;11.10;5.70;;;;;;;34.32;28.24;98707.77;529776;1093;116223;-63
2021/06/22 11:47:44;;;;;;;;;;;;;;;33.54;29.09;98697.81;523482;1091;115933;-62
2021/06/22 11:57:53;;;;;;;10.75;3.80;;;;;;;33.61;28.76;98743.80;530004;1092;102267;-63
2021/06/22 12:08:01;;;;;;;7.67;4.93;;;;;;;33.71;29.34;98734.81;529282;1093;116642;-63
2021/06/22 12:18:09;;;;;;;11.97;5.67;;;;;;;33.46;31.33;98774.53;528885;1092;115387;-74
2021/06/22 12:28:17;;;;;;;6.93;5.80;;;;;;;31.32;35.30;98803.30;521242;1092;117034;-68
2021/06/22 12:38:24;;;;;;;22.70;7.00;;;;;;;29.56;38.00;98817.76;527536;1093;117272;-66
2021/06/22 12:48:31;;;;;;;12.57;8.10;;;;;;;27.87;42.63;98868.53;524093;1092;116577;-65
2021/06/22 12:58:48;;;;;;;21.48;9.90;;;;;;;26.13;49.11;98863.91;529657;1093;115995;-63
2021/06/22 13:08:57;;;;;;;8.80;7.90;;;;;;;25.54;50.91;98872.95;515276;1092;117377;-63
2021/06/22 13:19:05;;;;;;;8.40;6.90;;;;;;;25.57;51.79;98869.83;528841;1092;115907;-64
2021/06/22 13:29:12;;;;;;;7.70;7.07;;;;;;;26.12;50.63;98873.02;529640;1092;115432;-64
2021/06/22 13:39:18;;;;;;;8.40;7.57;;;;;;;26.12;50.04;98846.95;526713;1092;115823;-65
2021/06/22 13:49:37;;;;;;;9.17;8.30;;;;;;;26.40;49.35;98877.20;529709;1093;116401;-65
2021/06/22 13:59:43;;;;;;;7.87;6.47;;;;;;;26.24;49.36;98927.80;528942;1092;116214;-65
2021/06/22 14:09:51;;;;;;;7.75;6.00;;;;;;;25.35;51.05;98930.25;525732;1092;117000;-65
2021/06/22 14:19:58;;;;;;;10.10;6.30;;;;;;;24.76;52.62;98925.59;525234;1093;116587;-65
2021/06/22 14:30:06;;;;;;;7.23;5.97;;;;;;;24.08;54.87;98931.94;529075;1092;115755;-66
2021/06/22 14:40:24;;;;;;;10.73;6.83;;;;;;;23.69;56.99;99076.30;529806;1093;115897;-65
2021/06/22 14:50:31;;;;;;;10.40;8.27;;;;;;;23.00;59.23;99041.98;529795;1092;116540;-65
2021/06/22 15:00:41;;;;;;;10.90;8.23;;;;;;;22.64;61.25;99014.28;529630;1093;116013;-65
2021/06/22 15:10:48;;;;;;;10.83;7.83;;;;;;;22.40;62.31;98981.51;526418;1092;116629;-65
2021/06/22 15:20:55;;;;;;;8.67;7.87;;;;;;;22.20;63.23;98940.37;511955;1093;116205;-66
2021/06/22 15:31:01;;;;;;;9.85;7.50;;;;;;;22.12;63.49;98949.34;522804;1092;116146;-65
2021/06/22 15:41:08;;;;;;;10.07;7.90;;;;;;;22.29;63.74;98957.14;527149;1092;117127;-66
2021/06/22 15:51:14;;;;;;;13.80;8.63;;;;;;;22.50;63.53;98948.30;529189;1092;116100;-66
2021/06/22 16:01:21;;;;;;;8.67;5.73;;;;;;;22.73;63.06;98952.61;529858;1092;115612;-67
2021/06/22 16:11:27;;;;;;;11.03;8.03;;;;;;;22.78;63.36;98963.55;526518;1092;117576;-66
2021/06/22 16:21:34;;;;;;;8.73;6.97;;;;;;;22.60;63.83;98964.86;529076;1092;116251;-62
2021/06/22 16:31:40;;;;;;;9.50;7.40;;;;;;;22.89;64.16;98984.43;522987;1092;116328;-63
2021/06/22 16:41:47;;;;;;;10.00;9.07;;;;;;;23.09;64.16;98984.61;527697;1093;117951;-63
2021/06/22 16:51:53;;;;;;;8.25;7.15;;;;;;;22.94;64.55;98989.20;529925;1092;116549;-63
2021/06/22 17:01:59;;;;;;;8.77;5.43;;;;;;;22.99;64.37;98986.80;529865;1093;117273;-62
2021/06/22 17:12:08;;;;;;;5.10;4.57;;;;;;;23.21;63.48;98992.09;525126;1092;116136;-63
2021/06/22 17:22:13;;;;;;;;;;;;;;;23.40;62.00;98962.97;529909;1092;116229;-63
2021/06/22 17:32:19;;;;;;;4.47;3.20;;;;;;;23.40;61.87;98928.98;530176;1092;101682;-62
2021/06/22 17:42:27;;;;;;;6.37;4.70;;;;;;;23.39;63.03;98923.81;529251;1092;117362;-63
2021/06/22 17:52:33;;;;;;;8.10;4.90;;;;;;;23.39;63.83;98939.89;529877;1092;116680;-64
2021/06/22 18:02:39;;;;;;;6.57;4.97;;;;;;;23.30;64.42;98953.44;523960;1092;115617;-62
2021/06/22 18:12:49;;;;;;;6.63;6.03;;;;;;;23.21;64.88;98950.06;529962;1092;116027;-63
2021/06/22 18:22:57;;;;;;;7.53;6.83;;;;;;;23.22;65.31;98981.17;529940;1093;116780;-63
2021/06/22 18:33:04;;;;;;;10.20;7.00;;;;;;;23.08;65.96;98982.11;520014;1092;115808;-62
2021/06/22 18:43:11;;;;;;;11.00;8.30;;;;;;;22.81;66.39;99032.77;529978;1092;116636;-63
2021/06/22 18:53:17;;;;;;;11.67;7.70;;;;;;;22.55;67.06;99081.48;529829;1092;116199;-62
2021/06/22 19:03:24;;;;;;;9.27;8.37;;;;;;;22.37;67.62;99106.75;529118;1093;116954;-62
2021/06/22 19:13:31;;;;;;;9.40;8.53;;;;;;;22.29;68.47;99112.23;529949;1092;116230;-63
2021/06/22 19:23:38;;;;;;;12.13;9.60;;;;;;;22.01;68.58;99143.13;520714;1092;10000884;-62
2021/06/22 19:33:44;;;;;;;10.20;9.27;;;;;;;21.83;68.80;99173.69;529696;1093;117476;-63
2021/06/22 19:43:52;;;;;;;15.47;13.10;;;;;;;21.68;69.60;99176.33;529759;1092;116050;-67
2021/06/22 19:53:59;;;;;;;15.87;13.43;;;;;;;21.62;70.01;99192.22;516146;1092;117009;-68
2021/06/22 20:04:06;;;;;;;15.63;13.47;;;;;;;21.59;70.93;99209.47;514279;1091;116505;-67
2021/06/22 20:14:12;;;;;;;15.70;12.83;;;;;;;21.48;71.10;99226.73;529712;1092;116373;-67
2021/06/22 20:24:19;;;;;;;15.93;14.27;;;;;;;21.45;71.69;99239.60;528833;1092;117295;-67
2021/06/22 20:34:26;;;;;;;20.97;14.60;;;;;;;21.30;71.92;99237.70;518056;1092;116817;-67
2021/06/22 20:44:33;;;;;;;16.20;13.10;;;;;;;21.12;72.37;99227.31;529686;1092;116893;-66
2021/06/22 20:54:40;;;;;;;15.20;13.80;;;;;;;20.92;72.69;99222.41;529552;1093;116328;-66
2021/06/22 21:04:47;;;;;;;13.47;12.27;;;;;;;20.79;73.51;99225.63;529684;1092;116437;-66
2021/06/22 21:14:54;;;;;;;15.40;13.80;;;;;;;20.70;73.90;99210.66;528874;1092;117882;-65
2021/06/22 21:25:00;;;;;;;16.73;15.10;;;;;;;20.67;73.88;99214.49;529774;1092;115626;-66
2021/06/22 21:35:09;;;;;;;15.10;13.63;;;;;;;20.73;74.04;99215.63;529716;1092;115839;-67
2021/06/22 21:45:18;;;;;;;15.40;13.90;;;;;;;20.85;74.42;99235.61;521921;1092;117318;-67
2021/06/22 21:55:25;;;;;;;21.93;19.93;;;;;;;20.96;74.08;99225.56;518246;1092;116465;-67
2021/06/22 22:05:33;;;;;;;16.10;14.23;;;;;;;20.99;73.66;99228.72;527630;1092;117465;-67
2021/06/22 22:15:39;;;;;;;13.00;11.27;;;;;;;20.92;72.82;99221.59;529033;1092;115790;-67
2021/06/22 22:25:47;;;;;;;11.50;10.20;;;;;;;20.85;72.97;99235.61;523552;1092;116103;-67
2021/06/22 22:35:54;;;;;;;14.23;12.83;;;;;;;20.80;73.02;99231.78;520222;1092;116641;-68
2021/06/22 22:46:00;;;;;;;14.20;12.37;;;;;;;20.66;73.27;99233.33;515637;1093;116303;-68
2021/06/22 22:56:09;;;;;;;14.10;12.40;;;;;;;20.41;73.82;99239.59;529760;1092;117212;-64
2021/06/22 23:06:15;;;;;;;14.10;12.73;;;;;;;20.32;73.87;99247.80;518906;1093;116778;-66
2021/06/22 23:16:22;;;;;;;13.50;12.10;;;;;;;20.09;74.32;99264.49;529749;1092;116000;-67
2021/06/22 23:26:29;;;;;;;14.17;12.77;;;;;;;20.13;74.53;99266.63;523318;1093;116279;-66
2021/06/22 23:36:37;;;;;;;16.53;14.57;;;;;;;20.04;74.85;99269.48;529033;1092;116439;-67
2021/06/22 23:46:44;;;;;;;17.20;15.65;;;;;;;19.89;75.01;99254.96;517258;1090;116714;-67
2021/06/22 23:56:51;;;;;;;16.58;14.90;;;;;;;19.68;75.39;99266.13;530324;1092;116180;-67
